Time;durP1;ratioP1;P1;durP2;ratioP2;P2;SDS_P1;SDS_P2;PMS_P1;PMS_P2;Temp;Humidity;BMP_temperature;BMP_pressure;BME280_temperature;BME280_humidity;BME280_pressure;Samples;Min_cycle;Max_cycle;Signal;HPM_P1;HPM_P2
2021/12/05 00:23:07;;;;;;;15.90;11.43;;;8.30;99.90;;;;;;5067804;28;20448;-72
2021/12/05 00:25:35;;;;;;;17.90;11.50;;;8.20;99.90;;;;;;5089849;28;20496;-72
2021/12/05 00:28:26;;;;;;;23.20;12.33;;;8.20;99.90;;;;;;5089436;28;20977;-76
2021/12/05 00:31:17;;;;;;;20.13;12.03;;;8.20;99.90;;;;;;5090009;28;20903;-74
2021/12/05 00:34:01;;;;;;;18.20;11.63;;;8.10;99.90;;;;;;5089897;28;20571;-70
2021/12/05 00:39:45;;;;;;;14.97;10.87;;;8.20;99.90;;;;;;5089977;28;20433;-76
2021/12/05 00:48:01;;;;;;;21.80;14.60;;;8.00;99.90;;;;;;5089460;28;20556;-73
2021/12/05 00:56:10;;;;;;;21.77;12.90;;;7.90;99.90;;;;;;5089084;28;20974;-73
2021/12/05 01:01:50;;;;;;;19.80;11.93;;;7.90;99.90;;;;;;5089502;28;20950;-72
2021/12/05 01:04:45;;;;;;;17.90;11.33;;;7.80;99.90;;;;;;5089399;28;20947;-73
2021/12/05 01:07:27;;;;;;;21.37;13.27;;;7.70;99.90;;;;;;5089723;28;20453;-75
2021/12/05 01:10:07;;;;;;;20.83;13.60;;;7.70;99.90;;;;;;5089663;28;20452;-70
2021/12/05 01:12:43;;;;;;;20.03;12.80;;;7.70;99.90;;;;;;5091156;28;20536;-71
2021/12/05 01:15:14;;;;;;;19.83;13.30;;;7.60;99.90;;;;;;5089624;28;20489;-74
2021/12/05 01:17:59;;;;;;;22.60;14.03;;;7.70;99.90;;;;;;5089892;28;20480;-72
2021/12/05 01:20:32;;;;;;;21.10;13.60;;;7.70;99.90;;;;;;5089052;28;20453;-70
2021/12/05 01:23:06;;;;;;;18.33;11.93;;;7.70;99.90;;;;;;5089544;28;20458;-76
2021/12/05 01:25:42;;;;;;;20.73;14.27;;;7.60;99.90;;;;;;5089361;28;20850;-74
2021/12/05 01:28:17;;;;;;;21.07;13.30;;;7.40;99.90;;;;;;5089548;28;20533;-76
2021/12/05 01:30:51;;;;;;;20.23;13.73;;;7.30;99.90;;;;;;5089661;28;20561;-72
2021/12/05 01:33:25;;;;;;;19.70;12.67;;;7.40;99.90;;;;;;5089396;28;20489;-76
2021/12/05 01:36:08;;;;;;;23.23;13.00;;;7.40;99.90;;;;;;5089250;28;20558;-74
2021/12/05 01:38:54;;;;;;;20.47;14.03;;;7.40;99.90;;;;;;5089605;28;20459;-74
2021/12/05 01:58:28;;;;;;;26.47;15.00;;;7.30;99.90;;;;;;5045959;28;20436;-73
2021/12/05 02:09:56;;;;;;;29.40;19.23;;;7.20;99.90;;;;;;5049728;28;20528;-75
2021/12/05 02:15:37;;;;;;;32.17;20.13;;;7.20;99.90;;;;;;5092627;28;20859;-72
2021/12/05 02:29:40;;;;;;;40.80;26.63;;;7.20;99.90;;;;;;5092357;28;20432;-73
2021/12/05 02:32:23;;;;;;;37.90;24.47;;;7.30;99.90;;;;;;5091534;28;20449;-76
2021/12/05 02:35:00;;;;;;;37.47;25.20;;;7.30;99.90;;;;;;5091887;28;20481;-75
2021/12/05 02:37:53;;;;;;;37.83;24.53;;;7.20;99.90;;;;;;5092073;28;20460;-70
2021/12/05 02:40:33;;;;;;;36.93;24.27;;;7.10;99.90;;;;;;5092152;28;20467;-70
2021/12/05 02:43:08;;;;;;;34.23;22.13;;;7.20;99.90;;;;;;5092198;28;20448;-75
2021/12/05 02:45:37;;;;;;;35.90;23.87;;;7.20;99.90;;;;;;5092366;28;20487;-71
2021/12/05 02:48:05;;;;;;;30.40;20.53;;;7.30;99.90;;;;;;5091988;28;20527;-70
2021/12/05 02:50:34;;;;;;;36.20;22.07;;;7.30;99.90;;;;;;5091606;28;20461;-72
2021/12/05 02:53:11;;;;;;;31.70;20.83;;;7.30;99.90;;;;;;5091922;28;20486;-71
2021/12/05 02:55:41;;;;;;;31.10;20.67;;;7.30;99.90;;;;;;5091888;28;20481;-71
2021/12/05 02:58:18;;;;;;;32.87;22.23;;;7.50;99.90;;;;;;5091818;28;20971;-75
2021/12/05 03:01:03;;;;;;;37.67;23.10;;;7.60;99.90;;;;;;5090276;28;20467;-74
2021/12/05 03:03:32;;;;;;;37.53;21.83;;;7.60;99.90;;;;;;5093885;28;20516;-70
2021/12/05 03:06:06;;;;;;;30.67;21.30;;;7.70;99.90;;;;;;5099878;28;20479;-69
2021/12/05 03:08:35;;;;;;;34.50;22.53;;;7.70;99.90;;;;;;5093489;28;20460;-73
2021/12/05 03:11:04;;;;;;;36.63;22.20;;;7.70;99.90;;;;;;5091998;28;20507;-73
2021/12/05 03:13:31;;;;;;;41.77;21.90;;;7.70;99.90;;;;;;5092665;28;20502;-71
2021/12/05 03:15:58;;;;;;;33.47;21.40;;;7.80;99.90;;;;;;5091379;28;20563;-72
2021/12/05 03:18:26;;;;;;;31.17;21.50;;;7.70;99.90;;;;;;5091062;28;20458;-71
2021/12/05 03:20:53;;;;;;;31.53;22.57;;;7.60;99.90;;;;;;5091471;28;20462;-74
2021/12/05 03:23:20;;;;;;;34.10;22.37;;;7.60;99.90;;;;;;5091306;28;20450;-74
2021/12/05 03:25:49;;;;;;;34.97;23.40;;;7.70;99.90;;;;;;5091128;28;20484;-74
2021/12/05 03:28:16;;;;;;;36.90;21.73;;;7.70;99.90;;;;;;5090956;28;20472;-76
2021/12/05 03:30:45;;;;;;;33.40;21.77;;;7.70;99.90;;;;;;5091234;28;20457;-74
2021/12/05 03:33:12;;;;;;;31.00;21.13;;;7.70;99.90;;;;;;5091143;28;20486;-72
2021/12/05 03:35:40;;;;;;;35.37;20.53;;;7.70;99.90;;;;;;5091297;28;20473;-76
2021/12/05 03:38:07;;;;;;;35.07;22.33;;;7.60;99.90;;;;;;5091056;28;20453;-74
2021/12/05 03:40:36;;;;;;;32.40;21.13;;;7.60;99.90;;;;;;5090935;28;20450;-72
2021/12/05 03:43:07;;;;;;;33.60;21.10;;;7.60;99.90;;;;;;5091266;28;20450;-74
2021/12/05 03:45:37;;;;;;;35.43;20.87;;;7.70;99.90;;;;;;5090992;28;20778;-74
2021/12/05 03:48:05;;;;;;;34.00;22.17;;;7.70;99.90;;;;;;5090931;28;20452;-72
2021/12/05 03:50:33;;;;;;;29.63;19.50;;;7.70;99.90;;;;;;5090538;28;20852;-74
2021/12/05 03:53:00;;;;;;;35.33;22.30;;;7.80;99.90;;;;;;5090847;28;20481;-72
2021/12/05 03:55:28;;;;;;;29.10;21.00;;;7.80;99.90;;;;;;5090233;28;20937;-74
2021/12/05 03:57:56;;;;;;;34.20;22.03;;;7.80;99.90;;;;;;5090900;28;20466;-74
2021/12/05 04:00:27;;;;;;;32.63;21.90;;;7.80;99.90;;;;;;5090499;28;20450;-73
2021/12/05 04:02:57;;;;;;;32.90;20.70;;;7.90;99.90;;;;;;5090644;28;20567;-74
2021/12/05 04:05:25;;;;;;;35.17;20.67;;;7.90;99.90;;;;;;5090262;28;20468;-75
2021/12/05 04:07:53;;;;;;;31.20;20.80;;;7.90;99.90;;;;;;5090694;28;20456;-75
2021/12/05 04:10:20;;;;;;;30.67;19.57;;;7.80;99.90;;;;;;5090535;28;20458;-73
2021/12/05 04:12:47;;;;;;;31.93;20.20;;;7.80;99.90;;;;;;5090246;28;20825;-71
2021/12/05 04:15:16;;;;;;;28.30;19.07;;;7.90;99.90;;;;;;5090388;28;20472;-73
2021/12/05 04:17:44;;;;;;;31.90;21.37;;;7.70;99.90;;;;;;5090101;28;20509;-70
2021/12/05 04:20:14;;;;;;;32.70;20.13;;;7.80;99.90;;;;;;5090416;28;20888;-73
2021/12/05 04:22:42;;;;;;;33.90;21.57;;;7.80;99.90;;;;;;5089864;28;20464;-75
2021/12/05 04:25:11;;;;;;;38.37;21.07;;;7.80;99.90;;;;;;5090148;28;20925;-72
2021/12/05 04:27:39;;;;;;;34.17;21.00;;;7.90;99.90;;;;;;5090303;28;20557;-75
2021/12/05 04:30:09;;;;;;;39.03;22.10;;;8.00;99.90;;;;;;5090255;28;20449;-75
2021/12/05 04:32:36;;;;;;;31.73;20.80;;;8.10;99.90;;;;;;5089816;28;20512;-75
2021/12/05 04:35:05;;;;;;;34.90;21.23;;;8.10;99.90;;;;;;5090014;28;20547;-71
2021/12/05 04:37:32;;;;;;;30.70;20.77;;;8.20;99.90;;;;;;5090149;28;20947;-74
2021/12/05 04:39:59;;;;;;;33.43;20.27;;;8.20;99.90;;;;;;5090082;28;20451;-71
2021/12/05 04:42:27;;;;;;;30.20;21.17;;;8.10;99.90;;;;;;5089980;28;20820;-72
2021/12/05 04:44:54;;;;;;;34.47;22.47;;;8.10;99.90;;;;;;5089916;28;20821;-71
2021/12/05 04:47:21;;;;;;;27.10;19.27;;;8.10;99.90;;;;;;5089923;28;20816;-74
2021/12/05 04:49:48;;;;;;;37.97;22.60;;;8.10;99.90;;;;;;5089860;28;20455;-73
2021/12/05 04:52:16;;;;;;;35.60;19.13;;;8.30;99.90;;;;;;5090002;28;20764;-74
2021/12/05 04:54:44;;;;;;;42.83;21.87;;;8.30;99.90;;;;;;5089579;28;20498;-72
2021/12/05 04:57:11;;;;;;;31.70;21.07;;;8.30;99.90;;;;;;5089357;28;20852;-73
2021/12/05 04:59:44;;;;;;;31.07;20.67;;;8.30;99.90;;;;;;5090108;28;20446;-74
2021/12/05 05:02:11;;;;;;;34.53;20.90;;;8.30;99.90;;;;;;5089271;28;20979;-74
2021/12/05 05:04:42;;;;;;;28.47;18.37;;;8.30;99.90;;;;;;5089599;28;20458;-72
2021/12/05 05:07:17;;;;;;;24.97;16.63;;;8.40;99.90;;;;;;5089454;28;20464;-75
2021/12/05 05:09:46;;;;;;;23.70;16.97;;;8.40;99.90;;;;;;5091988;28;20513;-75
2021/12/05 05:12:13;;;;;;;25.10;16.40;;;8.50;99.90;;;;;;5089103;28;20494;-75
2021/12/05 05:14:41;;;;;;;23.87;16.63;;;8.60;99.90;;;;;;5089353;28;20495;-72
2021/12/05 05:17:08;;;;;;;29.33;17.80;;;8.60;99.90;;;;;;5089378;28;20788;-70
2021/12/05 05:19:39;;;;;;;27.87;18.10;;;8.50;99.90;;;;;;5089669;28;20455;-72
2021/12/05 05:22:12;;;;;;;28.73;18.80;;;8.40;99.90;;;;;;5089501;28;20473;-72
2021/12/05 05:27:50;;;;;;;29.53;18.00;;;8.40;99.90;;;;;;5065945;28;20428;-72
2021/12/05 05:47:03;;;;;;;34.07;20.87;;;8.40;99.90;;;;;;5087830;28;20963;-72
2021/12/05 05:49:47;;;;;;;31.03;19.43;;;8.30;99.90;;;;;;5093353;28;20461;-72
2021/12/05 05:52:15;;;;;;;34.03;19.80;;;8.10;99.90;;;;;;5093361;28;20454;-69
2021/12/05 05:54:46;;;;;;;32.47;19.23;;;8.10;99.90;;;;;;5092574;28;20490;-74
2021/12/05 05:57:19;;;;;;;33.10;19.00;;;8.00;99.90;;;;;;5093078;28;20500;-71
2021/12/05 05:59:54;;;;;;;30.37;18.73;;;8.10;99.90;;;;;;5093807;28;20948;-69
2021/12/05 06:05:07;;;;;;;32.13;19.20;;;8.10;99.90;;;;;;5100595;28;20459;-72
2021/12/05 06:07:41;;;;;;;29.80;19.93;;;8.20;99.90;;;;;;5098231;28;20444;-71
2021/12/05 06:10:09;;;;;;;31.97;21.50;;;8.10;99.90;;;;;;5099068;28;20885;-72
2021/12/05 06:12:36;;;;;;;33.87;21.30;;;8.10;99.90;;;;;;5093875;28;20570;-72
2021/12/05 06:15:06;;;;;;;33.87;22.60;;;8.10;99.90;;;;;;5093141;28;20494;-70
2021/12/05 06:17:33;;;;;;;39.87;24.30;;;8.10;99.90;;;;;;5092535;28;20474;-76
2021/12/05 06:20:00;;;;;;;34.93;20.67;;;8.10;99.90;;;;;;5092796;28;20453;-72
2021/12/05 06:22:28;;;;;;;33.23;20.20;;;8.10;99.90;;;;;;5092738;28;20813;-72
2021/12/05 06:24:55;;;;;;;32.37;18.90;;;8.00;99.90;;;;;;5091953;28;20470;-72
2021/12/05 06:27:22;;;;;;;29.93;20.13;;;8.10;99.90;;;;;;5092574;28;20481;-75
2021/12/05 06:29:55;;;;;;;33.73;18.93;;;8.10;99.90;;;;;;5092432;28;20598;-70
2021/12/05 06:38:11;;;;;;;34.27;21.17;;;8.10;99.90;;;;;;5092234;28;20438;-71
2021/12/05 06:46:12;;;;;;;30.73;19.07;;;8.20;99.90;;;;;;5091395;28;20484;-72
2021/12/05 06:48:42;;;;;;;33.37;20.30;;;8.30;99.90;;;;;;5092360;28;20745;-73
2021/12/05 06:51:09;;;;;;;28.93;19.00;;;8.40;99.90;;;;;;5092269;28;20455;-71
2021/12/05 06:53:38;;;;;;;30.70;17.67;;;8.40;99.90;;;;;;5092010;28;21000;-71
2021/12/05 06:56:06;;;;;;;26.93;16.93;;;8.40;99.90;;;;;;5091696;28;20488;-73
2021/12/05 06:58:34;;;;;;;29.00;17.03;;;8.20;99.90;;;;;;5091922;28;20458;-75
2021/12/05 07:01:03;;;;;;;27.00;18.03;;;8.40;99.90;;;;;;5091681;28;20493;-75
2021/12/05 07:03:30;;;;;;;33.67;19.07;;;8.40;99.90;;;;;;5092092;28;20472;-72
2021/12/05 07:06:01;;;;;;;25.37;16.40;;;8.40;99.90;;;;;;5091219;28;20474;-71
2021/12/05 07:08:32;;;;;;;28.30;18.47;;;8.50;99.90;;;;;;5095512;28;20470;-74
2021/12/05 07:11:03;;;;;;;28.70;18.37;;;8.60;99.90;;;;;;5092028;28;20460;-73
2021/12/05 07:14:03;;;;;;;29.80;17.63;;;8.60;99.90;;;;;;5091322;28;20486;-73
2021/12/05 07:16:36;;;;;;;29.93;18.83;;;8.70;99.90;;;;;;5091654;28;20910;-70
2021/12/05 07:19:18;;;;;;;30.50;19.27;;;8.70;99.90;;;;;;5091471;28;20448;-75
2021/12/05 07:21:52;;;;;;;25.80;17.30;;;8.70;99.90;;;;;;5091644;28;20455;-74
2021/12/05 07:24:35;;;;;;;31.00;19.43;;;8.80;99.90;;;;;;5091244;28;20544;-71
2021/12/05 07:40:46;;;;;;;30.20;18.13;;;8.70;99.90;;;;;;5094197;28;20434;-72
2021/12/05 07:43:17;;;;;;;28.87;19.50;;;8.70;99.90;;;;;;5095291;28;20508;-72
2021/12/05 07:45:51;;;;;;;27.50;17.60;;;8.70;99.90;;;;;;5092256;28;20790;-72
2021/12/05 07:48:24;;;;;;;27.07;16.73;;;8.70;99.90;;;;;;5089582;28;20459;-70
2021/12/05 07:51:01;;;;;;;26.63;16.90;;;8.80;99.90;;;;;;5090996;28;21243;-73
2021/12/05 07:53:35;;;;;;;27.30;18.03;;;8.80;99.90;;;;;;5090957;28;20482;-79
2021/12/05 07:56:09;;;;;;;22.43;15.70;;;8.80;99.90;;;;;;5090731;28;20464;-78
2021/12/05 07:59:16;;;;;;;22.97;15.17;;;8.90;99.90;;;;;;5090811;28;20455;-77
2021/12/05 08:15:32;;;;;;;28.77;19.33;;;8.70;99.90;;;;;;5090932;28;20494;-78
2021/12/05 08:17:59;;;;;;;25.77;16.67;;;8.90;99.90;;;;;;5090534;28;20486;-79
2021/12/05 08:20:29;;;;;;;29.00;18.20;;;9.10;99.90;;;;;;5090301;28;21260;-71
2021/12/05 08:22:56;;;;;;;27.30;18.30;;;9.40;99.90;;;;;;5089794;28;20517;-76
2021/12/05 08:25:29;;;;;;;25.47;17.67;;;9.70;99.90;;;;;;5090029;28;20475;-78
2021/12/05 08:28:06;;;;;;;26.17;17.03;;;9.90;99.90;;;;;;5091221;28;20562;-73
2021/12/05 08:30:36;;;;;;;24.60;17.10;;;10.00;99.90;;;;;;5089870;28;21105;-74
2021/12/05 08:41:43;;;;;;;22.70;14.10;;;10.30;99.90;;;;;;5090061;28;20432;-76
2021/12/05 09:25:57;;;;;;;17.30;13.03;;;13.10;99.90;;;;;;5078068;28;20472;-69
2021/12/05 09:38:29;;;;;;;18.30;12.97;;;13.30;99.90;;;;;;5049910;28;20603;-71
2021/12/05 09:40:11;;;;;;;17.57;12.80;;;13.10;99.90;;;;;;5089617;28;20473;-72
2021/12/05 10:07:41;;;;;;;21.17;14.50;;;14.00;99.90;;;;;;5088328;28;20444;-71
2021/12/05 10:10:20;;;;;;;20.30;13.17;;;14.30;99.90;;;;;;5089010;28;20462;-68
2021/12/05 10:13:06;;;;;;;20.40;14.77;;;14.70;99.90;;;;;;5088385;28;20932;-69
2021/12/05 10:15:49;;;;;;;30.87;15.87;;;15.20;99.90;;;;;;5088346;28;20545;-66
2021/12/05 10:18:52;;;;;;;18.50;12.97;;;15.60;99.90;;;;;;5088609;28;20475;-65
2021/12/05 10:27:23;;;;;;;20.47;11.60;;;16.30;99.90;;;;;;5092190;28;20482;-70
2021/12/05 10:35:48;;;;;;;16.70;10.90;;;15.80;99.90;;;;;;5091845;28;20498;-68
2021/12/05 10:38:20;;;;;;;15.10;11.13;;;15.80;99.90;;;;;;5092830;28;20462;-73
2021/12/05 10:40:58;;;;;;;15.47;11.10;;;16.40;99.90;;;;;;5091779;28;20456;-72
2021/12/05 10:43:27;;;;;;;15.17;10.93;;;16.60;99.90;;;;;;5092140;28;20504;-69
2021/12/05 10:45:56;;;;;;;14.87;10.73;;;17.00;99.90;;;;;;5092035;28;21352;-76
2021/12/05 10:48:26;;;;;;;16.90;10.73;;;17.40;99.90;;;;;;5092595;28;20505;-72
2021/12/05 10:50:56;;;;;;;16.13;9.90;;;17.70;99.90;;;;;;5091900;28;20464;-71
2021/12/05 10:53:31;;;;;;;15.07;10.60;;;18.10;99.00;;;;;;5092129;28;20467;-67
2021/12/05 10:56:02;;;;;;;13.00;8.60;;;18.40;97.50;;;;;;5091543;28;20487;-71
2021/12/05 10:58:34;;;;;;;17.73;10.53;;;18.60;96.20;;;;;;5091846;28;20452;-69
2021/12/05 11:01:12;;;;;;;16.27;11.20;;;18.80;96.20;;;;;;5091817;28;20463;-69
2021/12/05 11:03:41;;;;;;;17.70;12.00;;;19.00;95.50;;;;;;5091785;28;20452;-71
2021/12/05 11:06:29;;;;;;;19.07;12.50;;;19.40;94.90;;;;;;5091195;28;20895;-71
2021/12/05 11:09:00;;;;;;;15.30;11.40;;;19.80;93.00;;;;;;5091649;28;20510;-69
2021/12/05 11:11:28;;;;;;;15.23;11.37;;;20.00;92.30;;;;;;5091327;28;20993;-73
2021/12/05 11:13:57;;;;;;;14.23;11.13;;;20.00;90.90;;;;;;5091052;28;20448;-72
2021/12/05 11:16:44;;;;;;;16.43;11.87;;;20.20;90.90;;;;;;5090881;28;20519;-71
2021/12/05 11:19:21;;;;;;;15.90;12.53;;;20.30;90.50;;;;;;5091190;28;20452;-74
2021/12/05 11:21:55;;;;;;;17.80;13.37;;;20.50;89.90;;;;;;5091529;28;20926;-70
2021/12/05 11:24:27;;;;;;;16.87;11.20;;;20.30;90.30;;;;;;5091231;28;20474;-70
2021/12/05 11:27:22;;;;;;;15.40;11.93;;;20.20;89.40;;;;;;5091174;28;20476;-71
2021/12/05 11:30:00;;;;;;;13.20;9.90;;;20.20;89.50;;;;;;5077699;28;20505;-70
2021/12/05 11:32:36;;;;;;;14.63;10.50;;;20.20;87.80;;;;;;5091198;28;20452;-69
2021/12/05 11:35:26;;;;;;;13.10;10.27;;;20.30;85.70;;;;;;5090984;28;20495;-69
2021/12/05 11:38:06;;;;;;;14.50;10.13;;;19.80;85.40;;;;;;5091058;28;20484;-70
2021/12/05 11:40:46;;;;;;;15.00;9.90;;;19.60;87.70;;;;;;5090931;28;20448;-70
2021/12/05 11:43:15;;;;;;;12.17;8.40;;;19.60;89.50;;;;;;5090981;28;20455;-69
2021/12/05 11:45:59;;;;;;;12.87;8.73;;;20.00;88.40;;;;;;5090420;28;20528;-70
2021/12/05 11:48:29;;;;;;;11.33;8.17;;;20.20;84.50;;;;;;5091008;28;20451;-70
2021/12/05 11:50:58;;;;;;;12.33;8.60;;;20.30;85.80;;;;;;5090749;28;20463;-69
2021/12/05 11:53:37;;;;;;;15.50;9.47;;;20.40;84.70;;;;;;5090967;28;20821;-70
2021/12/05 11:56:07;;;;;;;13.43;8.80;;;20.30;83.90;;;;;;5090880;28;20544;-70
2021/12/05 11:58:34;;;;;;;12.30;9.90;;;20.00;84.60;;;;;;5090910;28;20890;-70
2021/12/05 12:01:10;;;;;;;14.07;11.10;;;20.10;85.30;;;;;;5090511;28;20456;-71
2021/12/05 12:03:40;;;;;;;11.93;9.10;;;20.40;83.20;;;;;;5090444;28;20448;-71
2021/12/05 12:06:09;;;;;;;14.77;10.43;;;20.40;85.20;;;;;;5069472;28;20839;-71
2021/12/05 12:08:36;;;;;;;15.30;10.20;;;20.90;83.40;;;;;;5070242;28;21016;-71
2021/12/05 12:11:05;;;;;;;18.17;12.10;;;21.00;81.40;;;;;;5069916;28;20448;-71
2021/12/05 12:13:37;;;;;;;14.53;10.90;;;20.80;81.40;;;;;;5069616;28;20571;-71
2021/12/05 12:16:08;;;;;;;15.70;11.50;;;20.70;80.90;;;;;;5070099;28;20499;-70
2021/12/05 12:18:39;;;;;;;13.20;9.73;;;21.00;80.40;;;;;;5069508;28;20953;-68
2021/12/05 12:21:12;;;;;;;17.70;9.93;;;21.20;78.90;;;;;;5070112;28;20566;-71
2021/12/05 12:23:39;;;;;;;16.10;11.87;;;20.90;79.30;;;;;;5069838;28;20499;-70
2021/12/05 12:26:10;;;;;;;12.10;9.10;;;21.10;79.60;;;;;;5069734;28;20476;-70
2021/12/05 12:28:38;;;;;;;13.20;8.33;;;21.30;77.80;;;;;;5070035;28;20452;-71
2021/12/05 12:31:08;;;;;;;12.03;9.10;;;21.50;77.20;;;;;;5069852;28;20956;-71
2021/12/05 12:33:38;;;;;;;11.13;8.53;;;21.40;77.30;;;;;;5069805;28;20453;-70
2021/12/05 12:36:06;;;;;;;11.30;9.27;;;21.30;77.40;;;;;;5069624;28;20493;-71
2021/12/05 12:38:40;;;;;;;13.20;9.73;;;21.40;76.80;;;;;;5069807;28;20453;-70
2021/12/05 12:41:16;;;;;;;14.53;9.83;;;21.60;76.80;;;;;;5069839;28;20449;-70
2021/12/05 12:43:48;;;;;;;12.10;8.60;;;21.80;75.70;;;;;;5069453;28;20941;-70
2021/12/05 12:46:23;;;;;;;15.20;8.57;;;20.40;73.40;;;;;;5069165;28;20469;-70
2021/12/05 12:48:52;;;;;;;15.60;8.33;;;21.90;74.00;;;;;;5069573;28;20994;-70
2021/12/05 12:51:35;;;;;;;14.33;8.50;;;21.70;76.00;;;;;;5069440;28;20937;-71
2021/12/05 12:54:06;;;;;;;12.30;9.47;;;21.90;76.40;;;;;;5069523;28;20452;-71
2021/12/05 12:56:35;;;;;;;12.40;9.33;;;22.10;75.10;;;;;;5069266;28;20542;-72
2021/12/05 12:59:06;;;;;;;13.77;8.30;;;22.30;74.90;;;;;;5069573;28;20559;-69
2021/12/05 13:02:01;;;;;;;11.93;8.07;;;22.40;74.50;;;;;;5069382;28;20850;-70
2021/12/05 13:04:58;;;;;;;12.50;9.47;;;22.40;73.70;;;;;;5076007;28;20471;-70
2021/12/05 13:10:23;;;;;;;11.20;7.77;;;22.50;73.50;;;;;;5088948;28;20432;-70
2021/12/05 13:12:58;;;;;;;11.90;8.10;;;22.30;72.50;;;;;;5089004;28;20483;-71
2021/12/05 13:15:40;;;;;;;12.70;8.00;;;22.10;72.90;;;;;;5089150;28;20607;-71
2021/12/05 13:18:25;;;;;;;12.30;8.80;;;21.90;73.70;;;;;;5089182;28;20447;-70
2021/12/05 13:20:57;;;;;;;12.57;9.47;;;21.90;73.80;;;;;;5089474;28;20459;-70
2021/12/05 13:23:34;;;;;;;11.70;8.47;;;22.00;73.20;;;;;;5089422;28;20924;-71
2021/12/05 13:26:10;;;;;;;12.17;8.80;;;22.10;73.90;;;;;;5089164;28;20475;-70
2021/12/05 13:28:41;;;;;;;13.00;10.73;;;22.10;73.10;;;;;;5089101;28;20508;-71
2021/12/05 13:31:35;;;;;;;11.50;8.30;;;22.10;72.90;;;;;;5088797;28;20999;-70
2021/12/05 13:34:32;;;;;;;12.60;9.70;;;22.20;73.60;;;;;;5089359;28;20452;-69
2021/12/05 13:37:16;;;;;;;13.90;9.50;;;22.20;73.70;;;;;;5089292;28;20496;-62
2021/12/05 13:39:47;;;;;;;12.40;10.10;;;22.40;72.90;;;;;;5088859;28;20452;-68
2021/12/05 13:42:18;;;;;;;10.93;7.80;;;22.30;72.50;;;;;;5089221;28;20791;-70
2021/12/05 13:45:10;;;;;;;10.90;8.40;;;22.20;72.10;;;;;;5088803;28;20448;-66
2021/12/05 13:47:42;;;;;;;12.13;8.53;;;21.90;72.40;;;;;;5089166;28;20447;-63
2021/12/05 13:50:44;;;;;;;10.50;8.30;;;21.90;73.40;;;;;;5089330;28;20476;-68
2021/12/05 13:53:32;;;;;;;11.00;8.80;;;21.70;72.20;;;;;;5088834;28;20501;-67
2021/12/05 13:56:11;;;;;;;13.00;9.20;;;21.40;71.90;;;;;;5091738;28;20495;-70
2021/12/05 13:58:48;;;;;;;12.60;9.67;;;21.30;72.70;;;;;;5093112;28;20451;-69
2021/12/05 14:01:21;;;;;;;12.37;8.27;;;21.30;72.20;;;;;;5093061;28;20451;-69
2021/12/05 14:04:08;;;;;;;9.93;8.20;;;21.40;72.40;;;;;;5092561;28;20508;-67
2021/12/05 14:06:58;;;;;;;12.97;8.33;;;21.80;70.90;;;;;;5092492;28;20559;-67
2021/12/05 14:09:30;;;;;;;11.33;9.13;;;22.50;69.90;;;;;;5090109;28;20572;-65
2021/12/05 14:12:04;;;;;;;12.37;8.83;;;22.80;67.80;;;;;;5092025;28;20491;-67
2021/12/05 14:14:34;;;;;;;12.10;8.23;;;21.80;68.30;;;;;;5092750;28;20969;-65
2021/12/05 14:17:06;;;;;;;11.90;8.97;;;20.40;70.60;;;;;;5092546;28;20486;-65
2021/12/05 14:19:35;;;;;;;14.40;8.87;;;19.50;72.50;;;;;;5092704;28;20448;-66
2021/12/05 14:22:05;;;;;;;12.63;8.70;;;18.60;74.80;;;;;;5092785;28;20456;-67
2021/12/05 14:24:37;;;;;;;15.40;9.13;;;17.90;77.10;;;;;;5092078;28;20460;-67
2021/12/05 14:27:08;;;;;;;14.00;8.97;;;17.40;79.40;;;;;;5092638;28;20456;-66
2021/12/05 14:29:39;;;;;;;12.87;9.30;;;16.80;80.90;;;;;;5092499;28;20463;-67
2021/12/05 14:32:11;;;;;;;14.30;10.50;;;16.50;82.60;;;;;;5092331;28;20460;-65
2021/12/05 14:34:40;;;;;;;14.67;9.63;;;16.00;84.90;;;;;;5092519;28;20448;-66
2021/12/05 14:37:10;;;;;;;11.83;9.20;;;15.80;86.80;;;;;;5092201;28;20514;-66
2021/12/05 14:39:40;;;;;;;12.80;9.20;;;15.30;89.60;;;;;;5092085;28;20991;-65
2021/12/05 14:42:10;;;;;;;13.40;9.87;;;15.10;90.70;;;;;;5092273;28;20454;-68
2021/12/05 14:44:39;;;;;;;14.13;9.70;;;14.90;91.60;;;;;;5092117;28;20820;-66
2021/12/05 14:47:10;;;;;;;15.57;12.40;;;14.70;92.60;;;;;;5091981;28;20456;-64
2021/12/05 14:49:40;;;;;;;13.73;9.23;;;14.40;94.50;;;;;;5091965;28;20894;-65
2021/12/05 14:52:10;;;;;;;15.00;10.50;;;14.20;94.50;;;;;;5092145;28;20471;-66
2021/12/05 14:54:40;;;;;;;14.57;9.87;;;14.00;95.30;;;;;;5091918;28;20461;-66
2021/12/05 14:57:09;;;;;;;17.43;9.97;;;12.90;95.60;;;;;;5092065;28;21150;-66
2021/12/05 14:59:37;;;;;;;16.10;10.57;;;13.50;98.00;;;;;;5092030;28;20459;-65
2021/12/05 15:02:05;;;;;;;15.00;10.07;;;13.40;99.00;;;;;;5091727;28;20882;-66
2021/12/05 15:04:37;;;;;;;16.17;10.77;;;13.20;99.90;;;;;;5091455;28;20482;-66
2021/12/05 15:07:05;;;;;;;11.83;8.57;;;12.80;99.90;;;;;;5091448;28;20514;-66
2021/12/05 15:09:37;;;;;;;13.47;9.00;;;12.70;99.90;;;;;;5091817;28;20849;-67
2021/12/05 15:12:09;;;;;;;14.47;10.07;;;12.70;99.90;;;;;;5091338;28;20483;-66
2021/12/05 15:14:39;;;;;;;16.43;11.43;;;12.50;99.90;;;;;;5091487;28;20552;-67
2021/12/05 15:17:10;;;;;;;17.33;11.10;;;12.40;99.90;;;;;;5091124;28;20939;-66
2021/12/05 15:19:42;;;;;;;20.70;13.03;;;12.10;99.90;;;;;;5091688;28;20444;-66
2021/12/05 15:22:12;;;;;;;18.03;12.33;;;12.00;99.90;;;;;;5091693;28;20829;-66
2021/12/05 15:24:39;;;;;;;19.17;13.13;;;11.90;99.90;;;;;;5091815;28;20447;-73
2021/12/05 15:27:13;;;;;;;18.77;11.80;;;11.90;99.90;;;;;;5091367;28;20443;-72
2021/12/05 15:29:46;;;;;;;17.50;12.00;;;11.80;99.90;;;;;;5091328;28;20858;-70
2021/12/05 15:32:17;;;;;;;17.70;12.80;;;11.60;99.90;;;;;;5091238;28;20928;-73
2021/12/05 15:34:49;;;;;;;19.07;12.20;;;11.50;99.90;;;;;;5091112;28;20457;-70
2021/12/05 15:37:16;;;;;;;19.23;12.80;;;11.50;99.90;;;;;;5090878;28;20561;-70
2021/12/05 15:39:46;;;;;;;19.03;12.70;;;11.40;99.90;;;;;;5090754;28;20452;-72
2021/12/05 15:42:18;;;;;;;18.97;13.30;;;11.20;99.90;;;;;;5091062;28;20463;-72
2021/12/05 15:44:46;;;;;;;19.50;11.80;;;10.90;99.90;;;;;;5091073;28;20452;-73
2021/12/05 15:47:16;;;;;;;15.83;11.90;;;11.00;99.90;;;;;;5091059;28;20444;-73
2021/12/05 15:50:01;;;;;;;19.87;12.70;;;10.90;99.90;;;;;;5091330;28;20456;-73
2021/12/05 15:52:36;;;;;;;20.07;13.40;;;10.80;99.90;;;;;;5090009;28;20464;-71
2021/12/05 15:55:06;;;;;;;17.87;12.23;;;10.60;99.90;;;;;;5090658;28;20529;-70
2021/12/05 15:57:36;;;;;;;14.97;11.50;;;10.50;99.90;;;;;;5090920;28;20541;-73
2021/12/05 16:00:14;;;;;;;20.60;12.93;;;10.60;99.90;;;;;;5091260;28;20456;-72
2021/12/05 16:02:46;;;;;;;17.37;11.60;;;10.50;99.90;;;;;;5092414;28;20455;-73
2021/12/05 16:05:19;;;;;;;19.33;13.00;;;10.60;99.90;;;;;;5089719;28;20567;-74
2021/12/05 16:07:46;;;;;;;22.10;13.03;;;10.60;99.90;;;;;;5091170;28;20571;-74
2021/12/05 16:10:18;;;;;;;20.60;13.07;;;10.40;99.90;;;;;;5091160;28;20460;-76
2021/12/05 16:12:46;;;;;;;17.90;12.70;;;10.30;99.90;;;;;;5090505;28;20495;-73
2021/12/05 16:15:15;;;;;;;19.43;13.17;;;10.10;99.90;;;;;;5090710;28;20472;-72
2021/12/05 16:17:43;;;;;;;22.73;12.63;;;10.10;99.90;;;;;;5089955;28;20484;-74
2021/12/05 16:20:18;;;;;;;19.30;12.13;;;10.30;99.90;;;;;;5090313;28;20798;-74
2021/12/05 16:23:07;;;;;;;22.43;14.13;;;10.30;99.90;;;;;;5090563;28;20453;-75
2021/12/05 16:25:38;;;;;;;21.80;14.80;;;10.30;99.90;;;;;;5090724;28;20567;-73
2021/12/05 16:28:07;;;;;;;21.23;13.43;;;10.20;99.90;;;;;;5091166;28;21134;-71
2021/12/05 16:30:37;;;;;;;21.17;14.10;;;10.20;99.90;;;;;;5090778;28;20448;-71
2021/12/05 16:33:06;;;;;;;18.73;12.67;;;10.10;99.90;;;;;;5091154;28;20529;-70
2021/12/05 16:35:37;;;;;;;22.57;13.07;;;10.10;99.90;;;;;;5090739;28;20475;-72
2021/12/05 16:38:23;;;;;;;23.20;16.73;;;10.20;99.90;;;;;;5090094;28;20569;-73
2021/12/05 16:40:56;;;;;;;23.67;15.67;;;10.10;99.90;;;;;;5090586;28;20432;-72
2021/12/05 16:43:24;;;;;;;21.33;14.40;;;9.90;99.90;;;;;;5090454;28;20436;-75
2021/12/05 16:45:56;;;;;;;19.07;12.80;;;9.70;99.90;;;;;;5090150;28;20472;-74
2021/12/05 16:48:24;;;;;;;21.33;13.47;;;9.70;99.90;;;;;;5090072;28;20920;-70
2021/12/05 16:50:55;;;;;;;23.93;14.13;;;9.90;99.90;;;;;;5090155;28;20487;-68
2021/12/05 16:53:35;;;;;;;25.27;16.77;;;10.00;99.90;;;;;;5089954;28;20463;-71
2021/12/05 16:56:03;;;;;;;28.00;18.47;;;9.90;99.90;;;;;;5089991;28;20476;-68
2021/12/05 16:58:30;;;;;;;22.10;16.03;;;9.70;99.90;;;;;;5090033;28;20843;-70
2021/12/05 17:00:58;;;;;;;27.47;18.97;;;9.70;99.90;;;;;;5089661;28;20947;-70
2021/12/05 17:03:28;;;;;;;26.93;17.97;;;9.50;99.90;;;;;;5090257;28;20451;-69